sensor_id;sensor_type;location;lat;lon;timestamp;pressure;altitude;pressure_sealevel;temperature;humidity
74881;BME280;63427;49.654;6.596;2023-02-01T00:00:58;100386.14;;;8.56;46.82
74881;BME280;63427;49.654;6.596;2023-02-01T00:03:24;100375.69;;;8.54;46.82
74881;BME280;63427;49.654;6.596;2023-02-01T00:05:55;100368.94;;;8.57;46.72
74881;BME280;63427;49.654;6.596;2023-02-01T00:08:15;100374.95;;;7.74;48.74
74881;BME280;63427;49.654;6.596;2023-02-01T00:10:40;100366.25;;;8.01;48.23
74881;BME280;63427;49.654;6.596;2023-02-01T00:13:06;100363.78;;;8.08;47.97
74881;BME280;63427;49.654;6.596;2023-02-01T00:15:32;100362.25;;;8.35;47.46
74881;BME280;63427;49.654;6.596;2023-02-01T00:17:57;100358.57;;;8.44;47.10
74881;BME280;63427;49.654;6.596;2023-02-01T00:20:23;100348.07;;;7.77;48.43
74881;BME280;63427;49.654;6.596;2023-02-01T00:22:48;100353.73;;;8.26;47.95
74881;BME280;63427;49.654;6.596;2023-02-01T00:25:14;100359.20;;;7.97;47.84
74881;BME280;63427;49.654;6.596;2023-02-01T00:27:39;100364.99;;;8.14;47.54
74881;BME280;63427;49.654;6.596;2023-02-01T00:30:06;100365.53;;;8.53;46.78
74881;BME280;63427;49.654;6.596;2023-02-01T00:32:30;100362.48;;;8.53;46.92
74881;BME280;63427;49.654;6.596;2023-02-01T00:34:55;100357.99;;;8.24;47.31
74881;BME280;63427;49.654;6.596;2023-02-01T00:37:20;100358.98;;;7.99;47.63
74881;BME280;63427;49.654;6.596;2023-02-01T00:39:46;100361.27;;;8.42;46.97
74881;BME280;63427;49.654;6.596;2023-02-01T00:42:12;100357.82;;;8.48;47.38
74881;BME280;63427;49.654;6.596;2023-02-01T00:44:37;100349.85;;;7.96;48.41
74881;BME280;63427;49.654;6.596;2023-02-01T00:47:02;100354.50;;;7.65;48.83
74881;BME280;63427;49.654;6.596;2023-02-01T00:49:28;100348.97;;;8.19;48.37
74881;BME280;63427;49.654;6.596;2023-02-01T00:51:53;100349.91;;;7.85;49.06
74881;BME280;63427;49.654;6.596;2023-02-01T00:54:19;100351.78;;;7.96;48.94
74881;BME280;63427;49.654;6.596;2023-02-01T00:56:44;100355.64;;;7.79;49.08
74881;BME280;63427;49.654;6.596;2023-02-01T00:59:11;100355.76;;;7.53;49.82
74881;BME280;63427;49.654;6.596;2023-02-01T01:01:35;100361.62;;;7.54;49.87
74881;BME280;63427;49.654;6.596;2023-02-01T01:04:00;100358.12;;;7.53;49.78
74881;BME280;63427;49.654;6.596;2023-02-01T01:06:28;100358.20;;;7.63;49.68
74881;BME280;63427;49.654;6.596;2023-02-01T01:08:52;100357.72;;;7.84;48.74
74881;BME280;63427;49.654;6.596;2023-02-01T01:11:18;100357.28;;;8.10;48.00
74881;BME280;63427;49.654;6.596;2023-02-01T01:13:42;100352.83;;;7.95;48.43
74881;BME280;63427;49.654;6.596;2023-02-01T01:16:10;100353.04;;;8.17;47.61
74881;BME280;63427;49.654;6.596;2023-02-01T01:18:34;100345.31;;;7.63;48.93
74881;BME280;63427;49.654;6.596;2023-02-01T01:20:58;100345.03;;;7.31;50.44
74881;BME280;63427;49.654;6.596;2023-02-01T01:23:24;100344.38;;;7.21;50.13
74881;BME280;63427;49.654;6.596;2023-02-01T01:25:50;100338.83;;;7.25;50.40
74881;BME280;63427;49.654;6.596;2023-02-01T01:28:15;100330.39;;;7.36;50.23
74881;BME280;63427;49.654;6.596;2023-02-01T01:30:41;100327.72;;;7.67;49.94
74881;BME280;63427;49.654;6.596;2023-02-01T01:33:06;100328.63;;;6.38;52.39
74881;BME280;63427;49.654;6.596;2023-02-01T01:35:32;100345.33;;;6.92;51.70
74881;BME280;63427;49.654;6.596;2023-02-01T01:37:58;100345.42;;;7.32;50.25
74881;BME280;63427;49.654;6.596;2023-02-01T01:40:23;100342.40;;;7.14;50.15
74881;BME280;63427;49.654;6.596;2023-02-01T01:42:49;100339.52;;;7.08;50.62
74881;BME280;63427;49.654;6.596;2023-02-01T01:45:20;100341.90;;;7.14;50.85
74881;BME280;63427;49.654;6.596;2023-02-01T01:47:41;100337.74;;;6.86;51.30
74881;BME280;63427;49.654;6.596;2023-02-01T01:50:08;100327.49;;;7.46;49.71
74881;BME280;63427;49.654;6.596;2023-02-01T01:52:29;100334.28;;;7.44;49.75
74881;BME280;63427;49.654;6.596;2023-02-01T01:54:54;100317.52;;;6.34;51.40
74881;BME280;63427;49.654;6.596;2023-02-01T01:57:24;100322.68;;;6.85;50.89
74881;BME280;63427;49.654;6.596;2023-02-01T01:59:50;100329.79;;;7.41;50.78
74881;BME280;63427;49.654;6.596;2023-02-01T02:02:10;100319.54;;;7.11;50.26
74881;BME280;63427;49.654;6.596;2023-02-01T02:04:36;100316.75;;;6.24;52.99
74881;BME280;63427;49.654;6.596;2023-02-01T02:07:03;100308.36;;;6.72;52.33
74881;BME280;63427;49.654;6.596;2023-02-01T02:09:27;100317.68;;;6.74;51.47
74881;BME280;63427;49.654;6.596;2023-02-01T02:11:53;100301.25;;;6.95;51.22
74881;BME280;63427;49.654;6.596;2023-02-01T02:14:20;100281.25;;;7.13;50.83
74881;BME280;63427;49.654;6.596;2023-02-01T02:16:55;100292.77;;;6.93;50.60
74881;BME280;63427;49.654;6.596;2023-02-01T02:19:32;100285.82;;;6.90;50.86
74881;BME280;63427;49.654;6.596;2023-02-01T02:21:48;100286.61;;;7.17;50.97
74881;BME280;63427;49.654;6.596;2023-02-01T02:26:38;100266.21;;;6.90;50.35
74881;BME280;63427;49.654;6.596;2023-02-01T02:29:03;100261.62;;;7.13;50.47
74881;BME280;63427;49.654;6.596;2023-02-01T02:31:30;100254.87;;;6.90;51.24
74881;BME280;63427;49.654;6.596;2023-02-01T02:33:50;100241.39;;;6.16;52.67
74881;BME280;63427;49.654;6.596;2023-02-01T02:36:10;100240.77;;;6.43;52.19
74881;BME280;63427;49.654;6.596;2023-02-01T02:38:40;100249.79;;;7.14;50.38
74881;BME280;63427;49.654;6.596;2023-02-01T02:41:05;100246.54;;;6.31;51.93
74881;BME280;63427;49.654;6.596;2023-02-01T02:43:30;100261.02;;;6.56;51.41
74881;BME280;63427;49.654;6.596;2023-02-01T02:45:53;100266.40;;;6.70;50.94
74881;BME280;63427;49.654;6.596;2023-02-01T02:48:19;100269.01;;;7.51;49.44
74881;BME280;63427;49.654;6.596;2023-02-01T02:50:44;100261.47;;;7.37;49.11
74881;BME280;63427;49.654;6.596;2023-02-01T02:53:10;100255.54;;;7.17;49.51
74881;BME280;63427;49.654;6.596;2023-02-01T02:55:32;100272.64;;;7.37;49.00
74881;BME280;63427;49.654;6.596;2023-02-01T02:57:57;100288.43;;;7.92;48.12
74881;BME280;63427;49.654;6.596;2023-02-01T03:00:25;100295.98;;;7.80;47.96
74881;BME280;63427;49.654;6.596;2023-02-01T03:02:48;100297.09;;;8.13;47.77
74881;BME280;63427;49.654;6.596;2023-02-01T03:05:13;100296.14;;;8.10;47.69
74881;BME280;63427;49.654;6.596;2023-02-01T03:07:50;100296.16;;;7.18;48.84
74881;BME280;63427;49.654;6.596;2023-02-01T03:10:08;100298.92;;;7.66;48.24
74881;BME280;63427;49.654;6.596;2023-02-01T03:12:34;100297.38;;;8.06;47.79
74881;BME280;63427;49.654;6.596;2023-02-01T03:14:59;100305.08;;;8.10;47.55
74881;BME280;63427;49.654;6.596;2023-02-01T03:17:27;100311.91;;;8.27;46.78
74881;BME280;63427;49.654;6.596;2023-02-01T03:19:48;100305.97;;;8.13;46.97
74881;BME280;63427;49.654;6.596;2023-02-01T03:22:15;100291.31;;;7.39;47.78
74881;BME280;63427;49.654;6.596;2023-02-01T03:24:39;100290.14;;;7.98;47.60
74881;BME280;63427;49.654;6.596;2023-02-01T03:27:07;100289.06;;;7.92;47.89
74881;BME280;63427;49.654;6.596;2023-02-01T03:29:33;100293.31;;;7.34;48.38
74881;BME280;63427;49.654;6.596;2023-02-01T03:31:54;100292.42;;;7.82;48.22
74881;BME280;63427;49.654;6.596;2023-02-01T03:34:19;100282.29;;;7.79;48.20
74881;BME280;63427;49.654;6.596;2023-02-01T03:36:49;100282.74;;;7.87;48.28
74881;BME280;63427;49.654;6.596;2023-02-01T03:39:14;100293.80;;;7.86;48.43
74881;BME280;63427;49.654;6.596;2023-02-01T03:41:37;100296.52;;;7.64;47.97
74881;BME280;63427;49.654;6.596;2023-02-01T03:44:08;100297.76;;;7.90;47.76
74881;BME280;63427;49.654;6.596;2023-02-01T03:46:29;100299.58;;;7.64;48.64
74881;BME280;63427;49.654;6.596;2023-02-01T03:48:51;100300.68;;;8.03;48.49
74881;BME280;63427;49.654;6.596;2023-02-01T03:51:17;100297.58;;;8.29;48.08
74881;BME280;63427;49.654;6.596;2023-02-01T03:53:42;100305.72;;;7.77;48.56
74881;BME280;63427;49.654;6.596;2023-02-01T03:56:08;100305.01;;;8.00;48.11
74881;BME280;63427;49.654;6.596;2023-02-01T03:58:32;100304.57;;;7.63;48.95
74881;BME280;63427;49.654;6.596;2023-02-01T04:00:59;100300.83;;;8.26;47.91
74881;BME280;63427;49.654;6.596;2023-02-01T04:03:25;100296.45;;;7.89;47.76
74881;BME280;63427;49.654;6.596;2023-02-01T04:05:49;100308.36;;;7.93;47.55
74881;BME280;63427;49.654;6.596;2023-02-01T04:08:15;100310.96;;;7.87;47.69
74881;BME280;63427;49.654;6.596;2023-02-01T04:10:40;100310.70;;;8.31;47.59
74881;BME280;63427;49.654;6.596;2023-02-01T04:13:05;100316.20;;;8.17;47.08
74881;BME280;63427;49.654;6.596;2023-02-01T04:15:31;100314.11;;;8.34;47.04
74881;BME280;63427;49.654;6.596;2023-02-01T04:17:56;100318.57;;;8.34;47.48
74881;BME280;63427;49.654;6.596;2023-02-01T04:20:22;100314.73;;;8.22;47.16
74881;BME280;63427;49.654;6.596;2023-02-01T04:22:47;100317.57;;;8.65;46.97
74881;BME280;63427;49.654;6.596;2023-02-01T04:25:12;100321.25;;;8.16;46.93
74881;BME280;63427;49.654;6.596;2023-02-01T04:27:38;100325.23;;;8.41;46.55
74881;BME280;63427;49.654;6.596;2023-02-01T04:30:03;100323.44;;;8.14;46.80
74881;BME280;63427;49.654;6.596;2023-02-01T04:32:28;100316.46;;;8.20;46.77
74881;BME280;63427;49.654;6.596;2023-02-01T04:34:54;100316.44;;;8.62;46.46
74881;BME280;63427;49.654;6.596;2023-02-01T04:37:19;100326.66;;;8.51;46.49
74881;BME280;63427;49.654;6.596;2023-02-01T04:39:44;100325.89;;;8.55;46.03
74881;BME280;63427;49.654;6.596;2023-02-01T04:42:09;100329.49;;;7.92;46.78
74881;BME280;63427;49.654;6.596;2023-02-01T04:44:36;100325.39;;;8.43;46.05
74881;BME280;63427;49.654;6.596;2023-02-01T04:47:01;100325.56;;;8.22;46.67
74881;BME280;63427;49.654;6.596;2023-02-01T04:49:26;100327.66;;;8.28;46.31
74881;BME280;63427;49.654;6.596;2023-02-01T04:51:52;100331.81;;;8.59;45.61
74881;BME280;63427;49.654;6.596;2023-02-01T04:54:17;100334.23;;;8.49;45.63
74881;BME280;63427;49.654;6.596;2023-02-01T04:56:43;100328.74;;;8.24;46.21
74881;BME280;63427;49.654;6.596;2023-02-01T04:59:10;100319.04;;;7.70;47.60
74881;BME280;63427;49.654;6.596;2023-02-01T05:01:33;100311.62;;;7.89;47.00
74881;BME280;63427;49.654;6.596;2023-02-01T05:03:59;100305.01;;;7.85;46.90
74881;BME280;63427;49.654;6.596;2023-02-01T05:06:25;100312.69;;;8.03;46.71
74881;BME280;63427;49.654;6.596;2023-02-01T05:08:50;100306.78;;;8.15;46.98
74881;BME280;63427;49.654;6.596;2023-02-01T05:11:16;100298.31;;;8.78;46.25
74881;BME280;63427;49.654;6.596;2023-02-01T05:13:41;100293.90;;;8.38;45.99
74881;BME280;63427;49.654;6.596;2023-02-01T05:16:07;100286.70;;;8.39;46.00
74881;BME280;63427;49.654;6.596;2023-02-01T05:18:33;100292.97;;;8.29;46.36
74881;BME280;63427;49.654;6.596;2023-02-01T05:20:59;100293.26;;;8.10;47.43
74881;BME280;63427;49.654;6.596;2023-02-01T05:23:24;100297.35;;;7.92;46.81
74881;BME280;63427;49.654;6.596;2023-02-01T05:25:49;100298.34;;;8.31;46.26
74881;BME280;63427;49.654;6.596;2023-02-01T05:28:14;100307.66;;;8.16;46.04
74881;BME280;63427;49.654;6.596;2023-02-01T05:30:40;100322.25;;;8.33;45.92
74881;BME280;63427;49.654;6.596;2023-02-01T05:33:06;100334.09;;;8.77;45.53
74881;BME280;63427;49.654;6.596;2023-02-01T05:35:31;100336.38;;;8.05;45.86
74881;BME280;63427;49.654;6.596;2023-02-01T05:37:56;100334.43;;;8.61;45.64
74881;BME280;63427;49.654;6.596;2023-02-01T05:40:22;100336.52;;;8.39;45.54
74881;BME280;63427;49.654;6.596;2023-02-01T05:42:47;100331.42;;;8.05;46.10
74881;BME280;63427;49.654;6.596;2023-02-01T05:45:13;100335.74;;;8.11;45.79
74881;BME280;63427;49.654;6.596;2023-02-01T05:47:38;100335.71;;;8.21;45.46
74881;BME280;63427;49.654;6.596;2023-02-01T05:50:03;100342.58;;;8.47;45.02
74881;BME280;63427;49.654;6.596;2023-02-01T05:52:29;100342.00;;;8.75;44.77
74881;BME280;63427;49.654;6.596;2023-02-01T05:54:53;100342.84;;;8.48;44.32
74881;BME280;63427;49.654;6.596;2023-02-01T05:57:19;100343.11;;;8.31;44.29
74881;BME280;63427;49.654;6.596;2023-02-01T05:59:45;100341.53;;;8.29;43.94
74881;BME280;63427;49.654;6.596;2023-02-01T06:02:11;100340.64;;;8.41;44.08
74881;BME280;63427;49.654;6.596;2023-02-01T06:04:36;100341.76;;;8.53;43.77
74881;BME280;63427;49.654;6.596;2023-02-01T06:07:02;100345.49;;;8.55;43.81
74881;BME280;63427;49.654;6.596;2023-02-01T06:09:28;100347.36;;;8.69;43.45
74881;BME280;63427;49.654;6.596;2023-02-01T06:11:53;100351.36;;;8.18;44.03
74881;BME280;63427;49.654;6.596;2023-02-01T06:14:19;100351.21;;;8.35;43.84
74881;BME280;63427;49.654;6.596;2023-02-01T06:16:44;100352.27;;;8.33;44.04
74881;BME280;63427;49.654;6.596;2023-02-01T06:19:09;100349.59;;;8.90;43.10
74881;BME280;63427;49.654;6.596;2023-02-01T06:21:35;100344.69;;;8.71;43.58
74881;BME280;63427;49.654;6.596;2023-02-01T06:24:00;100354.56;;;9.02;42.99
74881;BME280;63427;49.654;6.596;2023-02-01T06:26:26;100352.49;;;8.80;42.58
74881;BME280;63427;49.654;6.596;2023-02-01T06:28:52;100341.65;;;8.95;41.84
74881;BME280;63427;49.654;6.596;2023-02-01T06:31:17;100351.50;;;8.68;41.70
74881;BME280;63427;49.654;6.596;2023-02-01T06:33:43;100348.04;;;8.45;40.90
74881;BME280;63427;49.654;6.596;2023-02-01T06:36:10;100343.83;;;8.16;41.84
74881;BME280;63427;49.654;6.596;2023-02-01T06:38:35;100351.11;;;8.29;40.68
74881;BME280;63427;49.654;6.596;2023-02-01T06:41:00;100347.24;;;8.16;40.60
74881;BME280;63427;49.654;6.596;2023-02-01T06:43:27;100350.18;;;8.02;39.97
74881;BME280;63427;49.654;6.596;2023-02-01T06:45:52;100347.54;;;8.18;39.26
74881;BME280;63427;49.654;6.596;2023-02-01T06:48:17;100351.38;;;8.06;38.71
74881;BME280;63427;49.654;6.596;2023-02-01T06:50:43;100351.31;;;8.35;38.09
74881;BME280;63427;49.654;6.596;2023-02-01T06:53:08;100353.74;;;8.30;38.29
74881;BME280;63427;49.654;6.596;2023-02-01T06:55:34;100357.65;;;8.19;38.48
74881;BME280;63427;49.654;6.596;2023-02-01T06:57:59;100361.67;;;8.27;38.59
74881;BME280;63427;49.654;6.596;2023-02-01T07:00:25;100362.09;;;8.26;38.47
74881;BME280;63427;49.654;6.596;2023-02-01T07:02:51;100364.50;;;7.81;38.87
74881;BME280;63427;49.654;6.596;2023-02-01T07:05:17;100369.38;;;8.14;38.94
74881;BME280;63427;49.654;6.596;2023-02-01T07:07:42;100373.23;;;8.01;38.95
74881;BME280;63427;49.654;6.596;2023-02-01T07:10:09;100370.37;;;8.42;39.27
74881;BME280;63427;49.654;6.596;2023-02-01T07:12:33;100374.13;;;8.16;39.36
74881;BME280;63427;49.654;6.596;2023-02-01T07:14:58;100368.16;;;8.00;40.25
74881;BME280;63427;49.654;6.596;2023-02-01T07:17:24;100374.89;;;8.18;40.26
74881;BME280;63427;49.654;6.596;2023-02-01T07:19:49;100369.52;;;7.74;41.21
74881;BME280;63427;49.654;6.596;2023-02-01T07:22:16;100370.93;;;7.72;41.52
74881;BME280;63427;49.654;6.596;2023-02-01T07:24:40;100373.56;;;7.46;42.36
74881;BME280;63427;49.654;6.596;2023-02-01T07:27:06;100376.75;;;7.19;42.57
74881;BME280;63427;49.654;6.596;2023-02-01T07:29:31;100378.32;;;7.89;41.97
74881;BME280;63427;49.654;6.596;2023-02-01T07:31:57;100385.70;;;7.78;41.41
74881;BME280;63427;49.654;6.596;2023-02-01T07:34:23;100390.57;;;8.11;41.82
74881;BME280;63427;49.654;6.596;2023-02-01T07:36:48;100394.03;;;7.62;41.68
74881;BME280;63427;49.654;6.596;2023-02-01T07:39:14;100397.92;;;7.91;41.67
74881;BME280;63427;49.654;6.596;2023-02-01T07:41:39;100402.68;;;7.74;41.69
74881;BME280;63427;49.654;6.596;2023-02-01T07:44:05;100405.50;;;7.75;41.61
74881;BME280;63427;49.654;6.596;2023-02-01T07:46:31;100406.14;;;7.76;41.98
74881;BME280;63427;49.654;6.596;2023-02-01T07:48:57;100406.65;;;7.49;42.73
74881;BME280;63427;49.654;6.596;2023-02-01T07:51:22;100409.17;;;7.49;42.78
74881;BME280;63427;49.654;6.596;2023-02-01T07:53:47;100420.41;;;7.40;42.47
74881;BME280;63427;49.654;6.596;2023-02-01T07:56:15;100422.99;;;7.96;42.03
74881;BME280;63427;49.654;6.596;2023-02-01T07:58:39;100434.62;;;7.75;41.89
74881;BME280;63427;49.654;6.596;2023-02-01T08:01:04;100445.14;;;7.52;42.29
74881;BME280;63427;49.654;6.596;2023-02-01T08:03:29;100437.62;;;7.70;42.23
74881;BME280;63427;49.654;6.596;2023-02-01T08:05:55;100437.57;;;8.21;42.10
74881;BME280;63427;49.654;6.596;2023-02-01T08:08:20;100435.08;;;7.53;42.77
74881;BME280;63427;49.654;6.596;2023-02-01T08:10:46;100431.57;;;7.41;42.81
74881;BME280;63427;49.654;6.596;2023-02-01T08:13:12;100432.11;;;7.49;42.71
74881;BME280;63427;49.654;6.596;2023-02-01T08:15:37;100436.12;;;7.51;43.03
74881;BME280;63427;49.654;6.596;2023-02-01T08:18:03;100442.57;;;7.63;42.84
74881;BME280;63427;49.654;6.596;2023-02-01T08:20:28;100441.49;;;7.93;42.38
74881;BME280;63427;49.654;6.596;2023-02-01T08:22:54;100442.83;;;7.94;41.93
74881;BME280;63427;49.654;6.596;2023-02-01T08:25:20;100439.35;;;8.38;41.70
74881;BME280;63427;49.654;6.596;2023-02-01T08:27:45;100442.49;;;7.73;42.76
74881;BME280;63427;49.654;6.596;2023-02-01T08:30:12;100440.13;;;7.94;42.21
74881;BME280;63427;49.654;6.596;2023-02-01T08:32:37;100439.11;;;8.03;42.24
74881;BME280;63427;49.654;6.596;2023-02-01T08:35:03;100446.41;;;7.44;42.34
74881;BME280;63427;49.654;6.596;2023-02-01T08:37:28;100437.84;;;7.99;42.13
74881;BME280;63427;49.654;6.596;2023-02-01T08:39:53;100435.90;;;8.28;41.71
74881;BME280;63427;49.654;6.596;2023-02-01T08:42:19;100426.40;;;7.99;41.54
74881;BME280;63427;49.654;6.596;2023-02-01T08:44:44;100429.00;;;7.53;42.62
74881;BME280;63427;49.654;6.596;2023-02-01T08:47:10;100435.28;;;8.11;41.67
74881;BME280;63427;49.654;6.596;2023-02-01T08:49:35;100440.17;;;7.78;41.72
74881;BME280;63427;49.654;6.596;2023-02-01T08:52:01;100442.03;;;7.85;41.53
74881;BME280;63427;49.654;6.596;2023-02-01T08:54:27;100442.20;;;7.97;41.58
74881;BME280;63427;49.654;6.596;2023-02-01T08:56:53;100440.78;;;7.49;42.07
74881;BME280;63427;49.654;6.596;2023-02-01T08:59:18;100439.77;;;7.81;42.00
74881;BME280;63427;49.654;6.596;2023-02-01T09:01:44;100436.84;;;7.67;41.36
74881;BME280;63427;49.654;6.596;2023-02-01T09:04:09;100435.46;;;7.65;41.76
74881;BME280;63427;49.654;6.596;2023-02-01T09:06:35;100441.41;;;7.87;41.44
74881;BME280;63427;49.654;6.596;2023-02-01T09:09:00;100451.28;;;7.73;41.16
74881;BME280;63427;49.654;6.596;2023-02-01T09:11:26;100463.21;;;8.13;40.68
74881;BME280;63427;49.654;6.596;2023-02-01T09:13:51;100468.11;;;7.72;40.51
74881;BME280;63427;49.654;6.596;2023-02-01T09:16:17;100475.97;;;8.26;40.24
74881;BME280;63427;49.654;6.596;2023-02-01T09:18:43;100481.73;;;8.12;40.81
74881;BME280;63427;49.654;6.596;2023-02-01T09:21:08;100485.46;;;8.29;40.33
74881;BME280;63427;49.654;6.596;2023-02-01T09:23:34;100486.12;;;8.11;40.50
74881;BME280;63427;49.654;6.596;2023-02-01T09:26:00;100483.40;;;8.21;40.56
74881;BME280;63427;49.654;6.596;2023-02-01T09:28:25;100484.80;;;8.54;39.84
74881;BME280;63427;49.654;6.596;2023-02-01T09:30:55;100489.86;;;8.39;40.02
74881;BME280;63427;49.654;6.596;2023-02-01T09:33:16;100494.08;;;8.16;40.34
74881;BME280;63427;49.654;6.596;2023-02-01T09:35:42;100497.15;;;7.99;40.31
74881;BME280;63427;49.654;6.596;2023-02-01T09:38:07;100500.22;;;8.17;40.11
74881;BME280;63427;49.654;6.596;2023-02-01T09:40:34;100508.30;;;8.33;39.89
74881;BME280;63427;49.654;6.596;2023-02-01T09:43:09;100504.80;;;8.42;39.64
74881;BME280;63427;49.654;6.596;2023-02-01T09:45:31;100509.07;;;8.61;39.23
74881;BME280;63427;49.654;6.596;2023-02-01T09:47:53;100516.82;;;8.81;39.22
74881;BME280;63427;49.654;6.596;2023-02-01T09:50:20;100520.95;;;8.79;39.06
74881;BME280;63427;49.654;6.596;2023-02-01T09:52:45;100525.58;;;9.02;38.66
74881;BME280;63427;49.654;6.596;2023-02-01T09:55:13;100533.90;;;8.23;39.32
74881;BME280;63427;49.654;6.596;2023-02-01T09:57:41;100534.19;;;8.56;39.12
74881;BME280;63427;49.654;6.596;2023-02-01T10:00:02;100541.12;;;8.16;39.97
74881;BME280;63427;49.654;6.596;2023-02-01T10:02:26;100541.70;;;8.17;39.23
74881;BME280;63427;49.654;6.596;2023-02-01T10:04:49;100535.90;;;8.58;39.27
74881;BME280;63427;49.654;6.596;2023-02-01T10:07:22;100528.63;;;8.64;39.36
74881;BME280;63427;49.654;6.596;2023-02-01T10:09:48;100519.76;;;8.25;39.10
74881;BME280;63427;49.654;6.596;2023-02-01T10:14:43;100528.08;;;8.87;38.75
74881;BME280;63427;49.654;6.596;2023-02-01T10:17:02;100532.04;;;8.86;38.70
74881;BME280;63427;49.654;6.596;2023-02-01T10:19:30;100519.45;;;9.11;38.63
74881;BME280;63427;49.654;6.596;2023-02-01T10:21:53;100519.55;;;8.85;38.34
74881;BME280;63427;49.654;6.596;2023-02-01T10:24:27;100516.38;;;8.72;38.93
74881;BME280;63427;49.654;6.596;2023-02-01T10:26:44;100513.68;;;8.77;38.67
74881;BME280;63427;49.654;6.596;2023-02-01T10:29:04;100504.50;;;8.52;38.70
74881;BME280;63427;49.654;6.596;2023-02-01T10:31:31;100509.57;;;8.63;38.53
74881;BME280;63427;49.654;6.596;2023-02-01T10:33:57;100503.16;;;8.69;38.26
74881;BME280;63427;49.654;6.596;2023-02-01T10:36:23;100493.78;;;8.55;38.80
74881;BME280;63427;49.654;6.596;2023-02-01T10:38:46;100488.89;;;8.64;38.26
74881;BME280;63427;49.654;6.596;2023-02-01T10:41:13;100491.64;;;8.49;38.43
74881;BME280;63427;49.654;6.596;2023-02-01T10:43:36;100487.50;;;8.81;38.08
74881;BME280;63427;49.654;6.596;2023-02-01T10:46:02;100487.00;;;8.99;38.31
74881;BME280;63427;49.654;6.596;2023-02-01T10:48:28;100479.65;;;9.09;38.06
74881;BME280;63427;49.654;6.596;2023-02-01T10:50:56;100475.04;;;9.23;37.98
74881;BME280;63427;49.654;6.596;2023-02-01T10:53:23;100476.62;;;8.83;38.30
74881;BME280;63427;49.654;6.596;2023-02-01T10:55:49;100469.28;;;8.78;38.17
74881;BME280;63427;49.654;6.596;2023-02-01T10:58:16;100466.92;;;9.59;38.03
74881;BME280;63427;49.654;6.596;2023-02-01T11:00:43;100464.63;;;9.21;37.45
74881;BME280;63427;49.654;6.596;2023-02-01T11:07:54;100468.13;;;10.17;36.12
74881;BME280;63427;49.654;6.596;2023-02-01T11:10:34;100468.36;;;9.92;36.55
74881;BME280;63427;49.654;6.596;2023-02-01T11:12:53;100464.46;;;9.87;36.59
74881;BME280;63427;49.654;6.596;2023-02-01T11:15:19;100459.06;;;9.61;36.47
74881;BME280;63427;49.654;6.596;2023-02-01T11:17:40;100459.16;;;9.11;37.43
74881;BME280;63427;49.654;6.596;2023-02-01T11:20:03;100454.55;;;8.65;39.39
74881;BME280;63427;49.654;6.596;2023-02-01T11:22:26;100447.71;;;9.59;37.51
74881;BME280;63427;49.654;6.596;2023-02-01T11:24:52;100440.55;;;9.55;36.59
74881;BME280;63427;49.654;6.596;2023-02-01T11:27:20;100439.47;;;9.46;36.52
74881;BME280;63427;49.654;6.596;2023-02-01T11:29:44;100441.57;;;9.30;36.67
74881;BME280;63427;49.654;6.596;2023-02-01T11:32:10;100442.50;;;10.06;35.83
74881;BME280;63427;49.654;6.596;2023-02-01T11:34:37;100447.12;;;10.73;35.38
74881;BME280;63427;49.654;6.596;2023-02-01T11:37:01;100450.54;;;10.27;35.79
74881;BME280;63427;49.654;6.596;2023-02-01T11:39:28;100449.39;;;10.21;35.85
74881;BME280;63427;49.654;6.596;2023-02-01T11:42:01;100451.17;;;9.62;35.86
74881;BME280;63427;49.654;6.596;2023-02-01T11:44:21;100451.93;;;9.58;35.76
74881;BME280;63427;49.654;6.596;2023-02-01T11:46:42;100455.88;;;9.41;35.56
74881;BME280;63427;49.654;6.596;2023-02-01T11:49:20;100450.76;;;9.23;36.55
74881;BME280;63427;49.654;6.596;2023-02-01T11:51:44;100449.58;;;9.74;36.00
74881;BME280;63427;49.654;6.596;2023-02-01T11:54:09;100446.47;;;9.75;36.26
74881;BME280;63427;49.654;6.596;2023-02-01T11:56:29;100450.08;;;9.65;36.75
74881;BME280;63427;49.654;6.596;2023-02-01T11:59:02;100451.58;;;9.47;36.52
74881;BME280;63427;49.654;6.596;2023-02-01T12:01:30;100450.33;;;9.98;36.29
74881;BME280;63427;49.654;6.596;2023-02-01T12:03:53;100453.28;;;9.65;36.46
74881;BME280;63427;49.654;6.596;2023-02-01T12:06:11;100447.59;;;9.51;36.62
74881;BME280;63427;49.654;6.596;2023-02-01T12:08:49;100440.37;;;8.89;37.20
74881;BME280;63427;49.654;6.596;2023-02-01T12:11:11;100438.02;;;9.54;36.65
74881;BME280;63427;49.654;6.596;2023-02-01T12:13:33;100437.09;;;9.58;37.16
74881;BME280;63427;49.654;6.596;2023-02-01T12:15:59;100441.70;;;9.56;37.09
74881;BME280;63427;49.654;6.596;2023-02-01T12:20:52;100439.44;;;9.87;36.88
74881;BME280;63427;49.654;6.596;2023-02-01T12:23:18;100436.74;;;9.59;36.85
74881;BME280;63427;49.654;6.596;2023-02-01T12:25:39;100427.83;;;10.11;36.62
74881;BME280;63427;49.654;6.596;2023-02-01T12:28:15;100434.14;;;9.66;37.04
74881;BME280;63427;49.654;6.596;2023-02-01T12:30:36;100421.69;;;9.86;36.25
74881;BME280;63427;49.654;6.596;2023-02-01T12:32:57;100421.40;;;9.96;36.26
74881;BME280;63427;49.654;6.596;2023-02-01T12:35:22;100410.75;;;9.91;36.10
74881;BME280;63427;49.654;6.596;2023-02-01T12:37:51;100404.21;;;10.16;36.31
74881;BME280;63427;49.654;6.596;2023-02-01T12:40:11;100403.30;;;9.88;36.58
74881;BME280;63427;49.654;6.596;2023-02-01T12:42:33;100403.09;;;9.77;36.57
74881;BME280;63427;49.654;6.596;2023-02-01T12:44:56;100394.68;;;9.85;36.87
74881;BME280;63427;49.654;6.596;2023-02-01T12:47:24;100381.67;;;9.94;36.13
74881;BME280;63427;49.654;6.596;2023-02-01T12:49:50;100376.80;;;9.73;36.24
74881;BME280;63427;49.654;6.596;2023-02-01T12:52:15;100373.14;;;9.39;36.92
74881;BME280;63427;49.654;6.596;2023-02-01T12:54:41;100377.16;;;9.11;37.18
74881;BME280;63427;49.654;6.596;2023-02-01T12:57:05;100369.81;;;9.25;37.20
74881;BME280;63427;49.654;6.596;2023-02-01T12:59:31;100357.83;;;9.38;37.51
74881;BME280;63427;49.654;6.596;2023-02-01T13:01:56;100359.74;;;9.47;36.40